Time;durP1;ratioP1;P1;durP2;ratioP2;P2;SDS_P1;SDS_P2;PMS_P1;PMS_P2;Temp;Humidity;BMP_temperature;BMP_pressure;BME280_temperature;BME280_humidity;BME280_pressure;Samples;Min_cycle;Max_cycle;Signal;HPM_P1;HPM_P2
2021/08/22 00:00:08;;;;;;;;;;;;;;;;;;2087326;28;1348;-81
2021/08/22 00:01:13;;;;;;;;;;;;;;;;;;2100301;28;1628;-83
2021/08/22 00:02:14;;;;;;;;;;;;;;;;;;2100087;28;1737;-83
2021/08/22 00:03:16;;;;;;;;;;;;;;;;;;2102279;28;1913;-83
2021/08/22 00:04:16;;;;;;;;;;;;;;;;;;2103418;28;1512;-83
2021/08/22 00:05:19;;;;;;;;;;;;;;;;;;2104584;28;1767;-83
2021/08/22 00:06:20;;;;;;;;;;;;;;;;;;2075271;28;1723;-82
2021/08/22 00:07:22;;;;;;;;;;;;;;;;;;2058836;28;1647;-82
2021/08/22 00:08:24;;;;;;;;;;;;;;;;;;2062532;28;1634;-82
2021/08/22 00:09:25;;;;;;;;;;;;;;;;;;2063114;28;1501;-82
2021/08/22 00:10:26;;;;;;;;;;;;;;;;;;2062990;28;1773;-82
2021/08/22 00:11:28;;;;;;;;;;;;;;;;;;2064645;28;1913;-82
2021/08/22 00:12:30;;;;;;;;;;;;;;;;;;2066425;28;1871;-82
2021/08/22 00:13:32;;;;;;;;;;;;;;;;;;2065235;28;765;-83
2021/08/22 00:14:33;;;;;;;;;;;;;;;;;;2057087;28;1291;-82
2021/08/22 00:15:34;;;;;;;;;;;;;;;;;;2057080;28;1662;-83
2021/08/22 00:16:36;;;;;;;;;;;;;;;;;;2066453;28;1921;-83
2021/08/22 00:17:37;;;;;;;;;;;;;;;;;;2065206;28;1661;-82
2021/08/22 00:18:39;;;;;;;;;;;;;;;;;;2065050;28;1675;-82
2021/08/22 00:19:39;;;;;;;;;;;;;;;;;;2065526;28;793;-82
2021/08/22 00:20:41;;;;;;;;;;;;;;;;;;2064504;28;1685;-82
2021/08/22 00:21:42;;;;;;;;;;;;;;;;;;2057808;28;1861;-82
2021/08/22 00:22:43;;;;;;;;;;;;;;;;;;2056863;28;1223;-83
2021/08/22 00:23:44;;;;;;;;;;;;;;;;;;2057392;28;1910;-83
2021/08/22 00:24:46;;;;;;;;;;;;;;;;;;2057150;28;1365;-84
2021/08/22 00:25:47;;;;;;;;;;;;;;;;;;2058251;28;1920;-83
2021/08/22 00:26:48;;;;;;;;;;;;;;;;;;2064600;28;1883;-83
2021/08/22 00:27:51;;;;;;;;;;;;;;;;;;2065218;28;1374;-83
2021/08/22 00:28:53;;;;;;;;;;;;;;;;;;2057161;28;1283;-83
2021/08/22 00:29:53;;;;;;;;;;;;;;;;;;2057417;28;1861;-84
2021/08/22 00:30:55;;;;;;;;;;;;;;;;;;2058261;28;1952;-84
2021/08/22 00:31:56;;;;;;;;;;;;;;;;;;2065865;28;1831;-84
2021/08/22 00:32:57;;;;;;;;;;;;;;;;;;2056893;28;1262;-84
2021/08/22 00:33:58;;;;;;;;;;;;;;;;;;2065739;28;1183;-85
2021/08/22 00:35:00;;;;;;;;;;;;;;;;;;2065182;28;1328;-85
2021/08/22 00:36:01;;;;;;;;;;;;;;;;;;2062363;28;2088;-84
2021/08/22 00:37:02;;;;;;;;;;;;;;;;;;2057636;28;2096;-84
2021/08/22 00:38:03;;;;;;;;;;;;;;;;;;2057534;28;1331;-84
2021/08/22 00:39:05;;;;;;;;;;;;;;;;;;2057245;28;1206;-84
2021/08/22 00:40:06;;;;;;;;;;;;;;;;;;2057736;28;854;-84
2021/08/22 00:41:08;;;;;;;;;;;;;;;;;;2085049;28;1842;-84
2021/08/22 00:42:09;;;;;;;;;;;;;;;;;;2064439;28;1929;-83
2021/08/22 00:43:12;;;;;;;;;;;;;;;;;;2065173;28;1983;-83
2021/08/22 00:44:12;;;;;;;;;;;;;;;;;;2065671;28;838;-83
2021/08/22 00:45:15;;;;;;;;;;;;;;;;;;2065633;28;1565;-83
2021/08/22 00:46:16;;;;;;;;;;;;;;;;;;2064830;28;1869;-83
2021/08/22 00:47:18;;;;;;;;;;;;;;;;;;2065401;28;1843;-83
2021/08/22 00:48:19;;;;;;;;;;;;;;;;;;2056879;28;1321;-80
2021/08/22 00:49:21;;;;;;;;;;;;;;;;;;2057302;28;1606;-81
2021/08/22 00:50:22;;;;;;;;;;;;;;;;;;2064905;28;1447;-81
2021/08/22 00:51:24;;;;;;;;;;;;;;;;;;2060401;28;2142;-81
2021/08/22 00:52:26;;;;;;;;;;;;;;;;;;2057411;28;1868;-81
2021/08/22 00:53:28;;;;;;;;;;;;;;;;;;2049652;28;1509;-81
2021/08/22 00:54:29;;;;;;;;;;;;;;;;;;2057149;28;1679;-81
2021/08/22 00:55:30;;;;;;;;;;;;;;;;;;2056843;28;1978;-81
2021/08/22 00:56:31;;;;;;;;;;;;;;;;;;2062880;28;1865;-81
2021/08/22 00:57:33;;;;;;;;;;;;;;;;;;2057947;28;1860;-81
2021/08/22 00:58:35;;;;;;;;;;;;;;;;;;2057135;28;1300;-82
2021/08/22 00:59:38;;;;;;;;;;;;;;;;;;2065554;28;863;-82
2021/08/22 01:00:42;;;;;;;;;;;;;;;;;;2065817;28;780;-82
2021/08/22 01:01:44;;;;;;;;;;;;;;;;;;2063719;28;1897;-82
2021/08/22 01:02:53;;;;;;;;;;;;;;;;;;2064235;28;1268;-81
2021/08/22 01:04:00;;;;;;;;;;;;;;;;;;2057143;28;1902;-82
2021/08/22 01:05:05;;;;;;;;;;;;;;;;;;2091368;28;1770;-81
2021/08/22 01:06:11;;;;;;;;;;;;;;;;;;2074033;28;1850;-82
2021/08/22 01:07:19;;;;;;;;;;;;;;;;;;2057117;28;1935;-81
2021/08/22 01:08:22;;;;;;;;;;;;;;;;;;2065068;28;1070;-82
2021/08/22 01:09:26;;;;;;;;;;;;;;;;;;2057382;28;1552;-81
2021/08/22 01:10:28;;;;;;;;;;;;;;;;;;2056975;28;1610;-81
2021/08/22 01:11:32;;;;;;;;;;;;;;;;;;2051388;28;1855;-81
2021/08/22 01:12:34;;;;;;;;;;;;;;;;;;2056271;28;1849;-82
2021/08/22 01:13:40;;;;;;;;;;;;;;;;;;2057393;28;1684;-81
2021/08/22 01:14:44;;;;;;;;;;;;;;;;;;2057220;28;1266;-81
2021/08/22 01:15:49;;;;;;;;;;;;;;;;;;2057039;28;1870;-81
2021/08/22 01:16:52;;;;;;;;;;;;;;;;;;2057809;28;1821;-81
2021/08/22 01:17:55;;;;;;;;;;;;;;;;;;2064773;28;1533;-81
2021/08/22 01:18:57;;;;;;;;;;;;;;;;;;2065206;28;1596;-80
2021/08/22 01:20:05;;;;;;;;;;;;;;;;;;2057235;28;1629;-80
2021/08/22 01:21:08;;;;;;;;;;;;;;;;;;2056457;28;1890;-80
2021/08/22 01:22:10;;;;;;;;;;;;;;;;;;2053117;28;1849;-80
2021/08/22 01:23:12;;;;;;;;;;;;;;;;;;2057194;28;895;-80
2021/08/22 01:24:14;;;;;;;;;;;;;;;;;;2056581;28;1982;-81
2021/08/22 01:25:15;;;;;;;;;;;;;;;;;;2057174;28;869;-80
2021/08/22 01:26:19;;;;;;;;;;;;;;;;;;2065115;28;1838;-80
2021/08/22 01:27:20;;;;;;;;;;;;;;;;;;2065125;28;1938;-80
2021/08/22 01:28:23;;;;;;;;;;;;;;;;;;2098742;28;1376;-80
2021/08/22 01:29:27;;;;;;;;;;;;;;;;;;2097964;28;1300;-82
2021/08/22 01:30:29;;;;;;;;;;;;;;;;;;2056992;28;1732;-81
2021/08/22 01:31:33;;;;;;;;;;;;;;;;;;2056135;28;1926;-80
2021/08/22 01:32:37;;;;;;;;;;;;;;;;;;2063597;28;1887;-82
2021/08/22 01:33:38;;;;;;;;;;;;;;;;;;2064861;28;1259;-82
2021/08/22 01:34:41;;;;;;;;;;;;;;;;;;2056858;28;1496;-82
2021/08/22 01:35:43;;;;;;;;;;;;;;;;;;2057311;28;906;-82
2021/08/22 01:36:44;;;;;;;;;;;;;;;;;;2063159;28;1932;-81
2021/08/22 01:37:47;;;;;;;;;;;;;;;;;;2098540;28;1946;-82
2021/08/22 01:38:49;;;;;;;;;;;;;;;;;;2089428;28;1538;-82
2021/08/22 01:39:51;;;;;;;;;;;;;;;;;;2049050;28;1397;-82
2021/08/22 01:40:51;;;;;;;;;;;;;;;;;;2057852;28;1966;-81
2021/08/22 01:41:54;;;;;;;;;;;;;;;;;;2097766;28;1880;-81
2021/08/22 01:42:55;;;;;;;;;;;;;;;;;;2090288;28;1559;-81
2021/08/22 01:43:58;;;;;;;;;;;;;;;;;;2057126;28;1969;-81
2021/08/22 01:45:00;;;;;;;;;;;;;;;;;;2064389;28;1498;-80
2021/08/22 01:46:02;;;;;;;;;;;;;;;;;;2056227;28;1882;-81
2021/08/22 01:47:03;;;;;;;;;;;;;;;;;;2056374;28;1944;-81
2021/08/22 01:48:07;;;;;;;;;;;;;;;;;;2056656;28;1370;-82
2021/08/22 01:49:09;;;;;;;;;;;;;;;;;;2057358;28;899;-82
2021/08/22 01:50:11;;;;;;;;;;;;;;;;;;2064799;28;1373;-81
2021/08/22 01:51:12;;;;;;;;;;;;;;;;;;2064593;28;2000;-82
2021/08/22 01:52:15;;;;;;;;;;;;;;;;;;2051624;28;1909;-81
2021/08/22 01:53:16;;;;;;;;;;;;;;;;;;2049246;28;1184;-81
2021/08/22 01:54:18;;;;;;;;;;;;;;;;;;2048820;29;1561;-82
2021/08/22 01:55:19;;;;;;;;;;;;;;;;;;2048698;28;1241;-81
2021/08/22 01:56:20;;;;;;;;;;;;;;;;;;2068822;28;1863;-81
2021/08/22 01:57:22;;;;;;;;;;;;;;;;;;2056488;28;1900;-81
2021/08/22 01:58:24;;;;;;;;;;;;;;;;;;2048858;28;1180;-81
2021/08/22 01:59:26;;;;;;;;;;;;;;;;;;2048929;28;1685;-81
2021/08/22 02:00:26;;;;;;;;;;;;;;;;;;2048572;29;1247;-81
2021/08/22 02:01:30;;;;;;;;;;;;;;;;;;2046636;28;1852;-79
2021/08/22 02:02:31;;;;;;;;;;;;;;;;;;2056694;28;1919;-80
2021/08/22 02:03:39;;;;;;;;;;;;;;;;;;2065132;28;867;-80
2021/08/22 02:04:42;;;;;;;;;;;;;;;;;;2064668;28;1552;-80
2021/08/22 02:05:46;;;;;;;;;;;;;;;;;;2059204;28;1867;-81
2021/08/22 02:06:48;;;;;;;;;;;;;;;;;;2102777;28;1927;-80
2021/08/22 02:07:50;;;;;;;;;;;;;;;;;;2057017;28;1461;-81
2021/08/22 02:08:53;;;;;;;;;;;;;;;;;;2056705;28;1220;-81
2021/08/22 02:10:03;;;;;;;;;;;;;;;;;;2065126;28;876;-82
2021/08/22 02:11:08;;;;;;;;;;;;;;;;;;2057185;28;1849;-82
2021/08/22 02:12:11;;;;;;;;;;;;;;;;;;2052960;28;1842;-82
2021/08/22 02:13:12;;;;;;;;;;;;;;;;;;2049190;28;1562;-82
2021/08/22 02:14:14;;;;;;;;;;;;;;;;;;2049972;29;1737;-82
2021/08/22 02:15:17;;;;;;;;;;;;;;;;;;2058468;28;1720;-82
2021/08/22 02:16:21;;;;;;;;;;;;;;;;;;2057892;28;1897;-81
2021/08/22 02:17:23;;;;;;;;;;;;;;;;;;2058379;28;2089;-82
2021/08/22 02:18:25;;;;;;;;;;;;;;;;;;2057706;28;1199;-82
2021/08/22 02:19:29;;;;;;;;;;;;;;;;;;2050610;28;1227;-81
2021/08/22 02:20:32;;;;;;;;;;;;;;;;;;2050248;28;1279;-82
2021/08/22 02:21:33;;;;;;;;;;;;;;;;;;2091751;28;2068;-82
2021/08/22 02:22:36;;;;;;;;;;;;;;;;;;2091893;28;1923;-82
2021/08/22 02:23:36;;;;;;;;;;;;;;;;;;2050475;28;1377;-82
2021/08/22 02:24:38;;;;;;;;;;;;;;;;;;2050091;29;1970;-82
2021/08/22 02:25:39;;;;;;;;;;;;;;;;;;2050392;28;1504;-81
2021/08/22 02:26:41;;;;;;;;;;;;;;;;;;2056684;28;2101;-82
2021/08/22 02:27:43;;;;;;;;;;;;;;;;;;2057929;28;1861;-82
2021/08/22 02:28:45;;;;;;;;;;;;;;;;;;2057861;28;1770;-82
2021/08/22 02:29:47;;;;;;;;;;;;;;;;;;2058371;28;858;-82
2021/08/22 02:30:50;;;;;;;;;;;;;;;;;;2066065;28;1880;-82
2021/08/22 02:31:51;;;;;;;;;;;;;;;;;;2057964;28;1675;-82
2021/08/22 02:32:54;;;;;;;;;;;;;;;;;;2057852;28;1298;-82
2021/08/22 02:33:54;;;;;;;;;;;;;;;;;;2050195;28;1382;-82
2021/08/22 02:34:57;;;;;;;;;;;;;;;;;;2058054;28;1326;-82
2021/08/22 02:35:58;;;;;;;;;;;;;;;;;;2058073;28;915;-82
2021/08/22 02:37:00;;;;;;;;;;;;;;;;;;2057955;28;1922;-82
2021/08/22 02:38:01;;;;;;;;;;;;;;;;;;2058218;28;1243;-82
2021/08/22 02:39:02;;;;;;;;;;;;;;;;;;2057843;28;1659;-82
2021/08/22 02:40:05;;;;;;;;;;;;;;;;;;2092026;28;1723;-82
2021/08/22 02:41:05;;;;;;;;;;;;;;;;;;2060393;28;1949;-82
2021/08/22 02:42:07;;;;;;;;;;;;;;;;;;2065605;28;1278;-81
2021/08/22 02:43:08;;;;;;;;;;;;;;;;;;2065962;28;1573;-82
2021/08/22 02:44:10;;;;;;;;;;;;;;;;;;2065954;28;1985;-82
2021/08/22 02:45:10;;;;;;;;;;;;;;;;;;2066346;28;1593;-82
2021/08/22 02:46:12;;;;;;;;;;;;;;;;;;2058218;28;1729;-82
2021/08/22 02:47:14;;;;;;;;;;;;;;;;;;2058042;28;1827;-82
2021/08/22 02:48:16;;;;;;;;;;;;;;;;;;2057134;28;1686;-82
2021/08/22 02:49:16;;;;;;;;;;;;;;;;;;2058222;28;897;-82
2021/08/22 02:50:20;;;;;;;;;;;;;;;;;;2057870;28;1390;-82
2021/08/22 02:51:20;;;;;;;;;;;;;;;;;;2058147;28;1563;-82
2021/08/22 02:52:22;;;;;;;;;;;;;;;;;;2057967;28;1569;-82
2021/08/22 02:53:23;;;;;;;;;;;;;;;;;;2058062;28;1346;-82
2021/08/22 02:54:24;;;;;;;;;;;;;;;;;;2057850;28;1695;-81
2021/08/22 02:55:25;;;;;;;;;;;;;;;;;;2057576;28;1225;-81
2021/08/22 02:56:27;;;;;;;;;;;;;;;;;;2108117;28;1272;-81
2021/08/22 02:57:27;;;;;;;;;;;;;;;;;;2100214;28;869;-81
2021/08/22 02:58:29;;;;;;;;;;;;;;;;;;2057793;28;1597;-80
2021/08/22 02:59:30;;;;;;;;;;;;;;;;;;2058124;28;1622;-80
2021/08/22 03:00:31;;;;;;;;;;;;;;;;;;2057778;28;1346;-80
2021/08/22 03:01:33;;;;;;;;;;;;;;;;;;2056305;28;1859;-80
2021/08/22 03:02:35;;;;;;;;;;;;;;;;;;2057586;28;2072;-80
2021/08/22 03:03:35;;;;;;;;;;;;;;;;;;2049298;28;1642;-80
2021/08/22 03:04:37;;;;;;;;;;;;;;;;;;2049864;29;1907;-80
2021/08/22 03:05:39;;;;;;;;;;;;;;;;;;2055435;28;1699;-80
2021/08/22 03:06:41;;;;;;;;;;;;;;;;;;2042179;29;1664;-80
2021/08/22 03:07:41;;;;;;;;;;;;;;;;;;2050060;28;1548;-80
2021/08/22 03:08:43;;;;;;;;;;;;;;;;;;2049915;29;1685;-80
2021/08/22 03:09:45;;;;;;;;;;;;;;;;;;2049707;28;1689;-80
2021/08/22 03:10:47;;;;;;;;;;;;;;;;;;2049713;28;1859;-82
2021/08/22 03:11:48;;;;;;;;;;;;;;;;;;2056467;28;2037;-82
2021/08/22 03:12:51;;;;;;;;;;;;;;;;;;2057608;28;1607;-82
2021/08/22 03:13:52;;;;;;;;;;;;;;;;;;2050075;28;1695;-82
2021/08/22 03:14:53;;;;;;;;;;;;;;;;;;2041928;29;1543;-81
2021/08/22 03:15:54;;;;;;;;;;;;;;;;;;2049910;28;1227;-82
2021/08/22 03:16:56;;;;;;;;;;;;;;;;;;2049377;28;1856;-81
2021/08/22 03:17:56;;;;;;;;;;;;;;;;;;2041783;29;1675;-81
2021/08/22 03:18:58;;;;;;;;;;;;;;;;;;2041712;29;1281;-82
2021/08/22 03:20:02;;;;;;;;;;;;;;;;;;2049746;29;1645;-82
2021/08/22 03:21:05;;;;;;;;;;;;;;;;;;2050495;28;2022;-82
2021/08/22 03:22:06;;;;;;;;;;;;;;;;;;2050617;28;1908;-82
2021/08/22 03:23:08;;;;;;;;;;;;;;;;;;2049690;29;1591;-81
2021/08/22 03:24:08;;;;;;;;;;;;;;;;;;2049708;28;777;-81
2021/08/22 03:25:11;;;;;;;;;;;;;;;;;;2057873;28;1259;-81
2021/08/22 03:26:11;;;;;;;;;;;;;;;;;;2046295;29;1848;-81
2021/08/22 03:27:13;;;;;;;;;;;;;;;;;;2042516;28;1846;-82
2021/08/22 03:28:14;;;;;;;;;;;;;;;;;;2041627;28;1615;-82
2021/08/22 03:29:15;;;;;;;;;;;;;;;;;;2049923;28;1685;-81
2021/08/22 03:30:16;;;;;;;;;;;;;;;;;;2099210;28;1586;-82
2021/08/22 03:31:18;;;;;;;;;;;;;;;;;;2083527;28;1871;-82
2021/08/22 03:32:19;;;;;;;;;;;;;;;;;;2060367;28;1963;-81
2021/08/22 03:33:21;;;;;;;;;;;;;;;;;;2057315;28;1430;-82
2021/08/22 03:34:21;;;;;;;;;;;;;;;;;;2049626;28;1656;-82
2021/08/22 03:35:23;;;;;;;;;;;;;;;;;;2049894;28;1555;-81
2021/08/22 03:36:26;;;;;;;;;;;;;;;;;;2056953;28;2028;-82
2021/08/22 03:37:27;;;;;;;;;;;;;;;;;;2049001;28;1861;-82
2021/08/22 03:38:29;;;;;;;;;;;;;;;;;;2049384;29;1234;-82
2021/08/22 03:39:30;;;;;;;;;;;;;;;;;;2049763;29;1709;-81
2021/08/22 03:40:31;;;;;;;;;;;;;;;;;;2041575;29;1721;-80
2021/08/22 03:41:33;;;;;;;;;;;;;;;;;;2055609;28;1921;-80
2021/08/22 03:42:34;;;;;;;;;;;;;;;;;;2049593;28;1959;-80
2021/08/22 03:43:35;;;;;;;;;;;;;;;;;;2049791;29;1809;-80
2021/08/22 03:44:37;;;;;;;;;;;;;;;;;;2048998;29;1910;-80
2021/08/22 03:45:38;;;;;;;;;;;;;;;;;;2057577;28;1603;-80
2021/08/22 03:46:39;;;;;;;;;;;;;;;;;;2041822;28;1931;-80
2021/08/22 03:47:40;;;;;;;;;;;;;;;;;;2097921;28;1229;-80
2021/08/22 03:48:42;;;;;;;;;;;;;;;;;;2057135;28;1557;-80
2021/08/22 03:49:42;;;;;;;;;;;;;;;;;;2049893;28;1302;-80
2021/08/22 03:50:44;;;;;;;;;;;;;;;;;;2049438;29;1868;-80
2021/08/22 03:51:46;;;;;;;;;;;;;;;;;;2050138;28;1857;-80
2021/08/22 03:52:51;;;;;;;;;;;;;;;;;;2057423;28;1710;-80
2021/08/22 03:53:52;;;;;;;;;;;;;;;;;;2057190;28;1722;-80
2021/08/22 03:54:53;;;;;;;;;;;;;;;;;;2049325;29;1689;-80
2021/08/22 03:55:54;;;;;;;;;;;;;;;;;;2055971;28;1946;-80
2021/08/22 03:56:56;;;;;;;;;;;;;;;;;;2057637;28;2005;-80
2021/08/22 03:57:56;;;;;;;;;;;;;;;;;;2057383;28;1639;-80
2021/08/22 03:58:58;;;;;;;;;;;;;;;;;;2048968;28;1669;-80
2021/08/22 03:59:59;;;;;;;;;;;;;;;;;;2057479;28;1721;-80
2021/08/22 04:01:00;;;;;;;;;;;;;;;;;;2048871;28;1888;-80
2021/08/22 04:02:01;;;;;;;;;;;;;;;;;;2054321;28;1896;-80
2021/08/22 04:03:22;;;;;;;;;;;;;;;;;;2057886;28;607;-80
2021/08/22 04:04:43;;;;;;;;;;;;;;;;;;2057729;28;1902;-80
2021/08/22 04:05:44;;;;;;;;;;;;;;;;;;2048803;28;1914;-80
2021/08/22 04:06:51;;;;;;;;;;;;;;;;;;2059238;28;1873;-80
2021/08/22 04:07:54;;;;;;;;;;;;;;;;;;2092133;28;1661;-79
2021/08/22 04:08:56;;;;;;;;;;;;;;;;;;2091070;28;1733;-80
2021/08/22 04:09:57;;;;;;;;;;;;;;;;;;2091154;28;930;-80
2021/08/22 04:10:59;;;;;;;;;;;;;;;;;;2090673;28;1862;-80
2021/08/22 04:12:00;;;;;;;;;;;;;;;;;;2066747;28;1841;-80
2021/08/22 04:13:01;;;;;;;;;;;;;;;;;;2048962;28;1393;-80
2021/08/22 04:14:03;;;;;;;;;;;;;;;;;;2057809;28;1767;-80
2021/08/22 04:15:04;;;;;;;;;;;;;;;;;;2099322;28;1635;-80
2021/08/22 04:16:06;;;;;;;;;;;;;;;;;;2099748;28;1813;-80
2021/08/22 04:17:07;;;;;;;;;;;;;;;;;;2049506;28;2008;-80
2021/08/22 04:18:09;;;;;;;;;;;;;;;;;;2049252;28;1843;-80
2021/08/22 04:19:09;;;;;;;;;;;;;;;;;;2057450;28;792;-80
2021/08/22 04:20:11;;;;;;;;;;;;;;;;;;2057748;28;785;-80
2021/08/22 04:21:12;;;;;;;;;;;;;;;;;;2049368;28;1839;-80
2021/08/22 04:22:15;;;;;;;;;;;;;;;;;;2049368;28;1845;-80
2021/08/22 04:23:16;;;;;;;;;;;;;;;;;;2041904;29;1532;-80
2021/08/22 04:24:17;;;;;;;;;;;;;;;;;;2049531;29;1582;-80
2021/08/22 04:25:18;;;;;;;;;;;;;;;;;;2049429;29;1899;-80
2021/08/22 04:26:20;;;;;;;;;;;;;;;;;;2049340;28;1934;-80
2021/08/22 04:27:21;;;;;;;;;;;;;;;;;;2098671;28;2104;-80
2021/08/22 04:28:22;;;;;;;;;;;;;;;;;;2099109;28;1513;-80
2021/08/22 04:29:24;;;;;;;;;;;;;;;;;;2091114;28;1554;-80
2021/08/22 04:30:25;;;;;;;;;;;;;;;;;;2091135;28;1612;-80
2021/08/22 04:31:26;;;;;;;;;;;;;;;;;;2091298;28;1846;-80
2021/08/22 04:32:28;;;;;;;;;;;;;;;;;;2049386;28;1896;-80
2021/08/22 04:33:29;;;;;;;;;;;;;;;;;;2050535;29;1268;-80
2021/08/22 04:34:30;;;;;;;;;;;;;;;;;;2045438;29;1524;-80
2021/08/22 04:35:31;;;;;;;;;;;;;;;;;;2044394;28;1778;-80
2021/08/22 04:36:33;;;;;;;;;;;;;;;;;;2059088;28;1996;-80
2021/08/22 04:37:35;;;;;;;;;;;;;;;;;;2058252;28;2038;-81
2021/08/22 04:38:37;;;;;;;;;;;;;;;;;;2053358;28;1547;-80
2021/08/22 04:39:38;;;;;;;;;;;;;;;;;;2052269;28;1819;-80
2021/08/22 04:40:39;;;;;;;;;;;;;;;;;;2053197;29;1699;-80
2021/08/22 04:41:42;;;;;;;;;;;;;;;;;;2053651;28;1961;-80
2021/08/22 04:42:44;;;;;;;;;;;;;;;;;;2059463;28;903;-80
2021/08/22 04:43:45;;;;;;;;;;;;;;;;;;2090984;28;1231;-80
2021/08/22 04:44:47;;;;;;;;;;;;;;;;;;2090915;28;1914;-80
2021/08/22 04:45:48;;;;;;;;;;;;;;;;;;2091001;28;1835;-81
2021/08/22 04:46:49;;;;;;;;;;;;;;;;;;2082942;28;1869;-80
2021/08/22 04:47:51;;;;;;;;;;;;;;;;;;2090671;28;1768;-80
2021/08/22 04:48:52;;;;;;;;;;;;;;;;;;2090463;28;1679;-81
2021/08/22 04:49:53;;;;;;;;;;;;;;;;;;2057484;28;825;-82
2021/08/22 04:50:55;;;;;;;;;;;;;;;;;;2090931;28;1958;-81
2021/08/22 04:51:56;;;;;;;;;;;;;;;;;;2049589;28;2070;-81
2021/08/22 04:52:59;;;;;;;;;;;;;;;;;;2049312;29;1708;-81
2021/08/22 04:53:59;;;;;;;;;;;;;;;;;;2041600;29;1577;-81
2021/08/22 04:55:03;;;;;;;;;;;;;;;;;;2040856;29;1347;-81
2021/08/22 04:56:05;;;;;;;;;;;;;;;;;;2049646;28;1800;-81
2021/08/22 04:57:07;;;;;;;;;;;;;;;;;;2049778;28;1880;-80
2021/08/22 04:58:08;;;;;;;;;;;;;;;;;;2090652;28;1654;-80
2021/08/22 04:59:09;;;;;;;;;;;;;;;;;;2099433;28;844;-80
2021/08/22 05:00:12;;;;;;;;;;;;;;;;;;2057639;28;903;-80
2021/08/22 05:01:12;;;;;;;;;;;;;;;;;;2057330;28;1924;-81
2021/08/22 05:02:14;;;;;;;;;;;;;;;;;;2056047;28;2102;-80
2021/08/22 05:03:15;;;;;;;;;;;;;;;;;;2057128;28;882;-81
2021/08/22 05:04:17;;;;;;;;;;;;;;;;;;2048739;29;1775;-80
2021/08/22 05:05:18;;;;;;;;;;;;;;;;;;2041477;29;1915;-80
2021/08/22 05:06:19;;;;;;;;;;;;;;;;;;2054912;28;2006;-80
2021/08/22 05:07:21;;;;;;;;;;;;;;;;;;2090777;28;1852;-80
2021/08/22 05:08:23;;;;;;;;;;;;;;;;;;2041138;29;1538;-81
2021/08/22 05:09:24;;;;;;;;;;;;;;;;;;2049107;28;903;-80
2021/08/22 05:10:25;;;;;;;;;;;;;;;;;;2049062;29;1598;-80
2021/08/22 05:11:27;;;;;;;;;;;;;;;;;;2054591;28;1883;-80
2021/08/22 05:12:27;;;;;;;;;;;;;;;;;;2104858;28;1894;-80
2021/08/22 05:13:29;;;;;;;;;;;;;;;;;;2099212;28;1785;-80
2021/08/22 05:14:31;;;;;;;;;;;;;;;;;;2098881;28;1208;-80
2021/08/22 05:15:32;;;;;;;;;;;;;;;;;;2091010;28;1236;-80
2021/08/22 05:16:33;;;;;;;;;;;;;;;;;;2088839;28;1876;-80
2021/08/22 05:17:35;;;;;;;;;;;;;;;;;;2090397;28;2031;-80
2021/08/22 05:18:35;;;;;;;;;;;;;;;;;;2098504;28;1383;-80
2021/08/22 05:19:37;;;;;;;;;;;;;;;;;;2090597;28;1698;-80
2021/08/22 05:20:38;;;;;;;;;;;;;;;;;;2090887;28;1593;-80
2021/08/22 05:21:39;;;;;;;;;;;;;;;;;;2091239;28;1949;-80
2021/08/22 05:22:40;;;;;;;;;;;;;;;;;;2098112;28;1685;-80
2021/08/22 05:23:43;;;;;;;;;;;;;;;;;;2090710;28;1537;-80
2021/08/22 05:24:44;;;;;;;;;;;;;;;;;;2099169;28;863;-80
2021/08/22 05:25:45;;;;;;;;;;;;;;;;;;2098704;28;1917;-80
2021/08/22 05:26:46;;;;;;;;;;;;;;;;;;2055186;28;1888;-80
2021/08/22 05:27:48;;;;;;;;;;;;;;;;;;2057240;28;1734;-81
2021/08/22 05:28:48;;;;;;;;;;;;;;;;;;2049011;28;1551;-81
2021/08/22 05:29:50;;;;;;;;;;;;;;;;;;2056756;28;1698;-80
2021/08/22 05:30:51;;;;;;;;;;;;;;;;;;2097953;28;1863;-80
2021/08/22 05:31:52;;;;;;;;;;;;;;;;;;2097982;28;1877;-81
2021/08/22 05:32:53;;;;;;;;;;;;;;;;;;2056750;28;1719;-80
2021/08/22 05:33:55;;;;;;;;;;;;;;;;;;2048881;29;1676;-80
2021/08/22 05:34:56;;;;;;;;;;;;;;;;;;2049040;28;1660;-80
2021/08/22 05:35:57;;;;;;;;;;;;;;;;;;2049192;28;1879;-81
2021/08/22 05:36:58;;;;;;;;;;;;;;;;;;2048741;28;1836;-80
2021/08/22 05:38:00;;;;;;;;;;;;;;;;;;2048753;29;1680;-81
2021/08/22 05:39:02;;;;;;;;;;;;;;;;;;2049061;28;1283;-81
2021/08/22 05:40:04;;;;;;;;;;;;;;;;;;2049750;28;1532;-81
2021/08/22 05:41:05;;;;;;;;;;;;;;;;;;2051510;28;1875;-80
2021/08/22 05:42:08;;;;;;;;;;;;;;;;;;2086938;28;1837;-81
2021/08/22 05:43:09;;;;;;;;;;;;;;;;;;2089862;28;1019;-81
2021/08/22 05:44:11;;;;;;;;;;;;;;;;;;2048397;29;1830;-80
2021/08/22 05:45:11;;;;;;;;;;;;;;;;;;2040841;29;1907;-80
2021/08/22 05:46:13;;;;;;;;;;;;;;;;;;2041403;28;1880;-81
2021/08/22 05:47:18;;;;;;;;;;;;;;;;;;2049429;28;1924;-81
2021/08/22 05:48:20;;;;;;;;;;;;;;;;;;2091016;28;1656;-81
2021/08/22 05:49:20;;;;;;;;;;;;;;;;;;2083904;28;1744;-81
2021/08/22 05:50:22;;;;;;;;;;;;;;;;;;2092138;28;1647;-81
2021/08/22 05:51:23;;;;;;;;;;;;;;;;;;2090858;28;2039;-80
2021/08/22 05:52:24;;;;;;;;;;;;;;;;;;2091748;28;2010;-80
2021/08/22 05:53:25;;;;;;;;;;;;;;;;;;2092267;28;1360;-80
2021/08/22 05:54:28;;;;;;;;;;;;;;;;;;2050212;28;1553;-80
2021/08/22 05:55:29;;;;;;;;;;;;;;;;;;2050482;28;1575;-79
2021/08/22 05:56:31;;;;;;;;;;;;;;;;;;2092205;28;1995;-79
2021/08/22 05:57:31;;;;;;;;;;;;;;;;;;2049813;28;1985;-79
2021/08/22 05:58:33;;;;;;;;;;;;;;;;;;2050104;28;1700;-79
2021/08/22 05:59:34;;;;;;;;;;;;;;;;;;2050412;28;1580;-79
2021/08/22 06:00:36;;;;;;;;;;;;;;;;;;2050013;29;1581;-79
2021/08/22 06:01:36;;;;;;;;;;;;;;;;;;2050716;28;1999;-80
2021/08/22 06:02:38;;;;;;;;;;;;;;;;;;2050253;28;1680;-80
2021/08/22 06:03:39;;;;;;;;;;;;;;;;;;2050480;28;797;-82
2021/08/22 06:04:41;;;;;;;;;;;;;;;;;;2050012;29;1659;-81
2021/08/22 06:05:41;;;;;;;;;;;;;;;;;;2049547;28;1960;-78
2021/08/22 06:06:43;;;;;;;;;;;;;;;;;;2049107;29;2132;-78
2021/08/22 06:07:44;;;;;;;;;;;;;;;;;;2050459;28;816;-78
2021/08/22 06:08:45;;;;;;;;;;;;;;;;;;2050185;29;1297;-78
2021/08/22 06:09:48;;;;;;;;;;;;;;;;;;2050453;28;832;-78
2021/08/22 06:10:49;;;;;;;;;;;;;;;;;;2058873;28;820;-77
2021/08/22 06:11:50;;;;;;;;;;;;;;;;;;2050075;29;1558;-78
2021/08/22 06:12:52;;;;;;;;;;;;;;;;;;2049707;29;1525;-78
2021/08/22 06:13:53;;;;;;;;;;;;;;;;;;2050502;28;832;-78
2021/08/22 06:14:54;;;;;;;;;;;;;;;;;;2050175;29;1532;-78
2021/08/22 06:15:55;;;;;;;;;;;;;;;;;;2050056;28;1863;-78
2021/08/22 06:16:57;;;;;;;;;;;;;;;;;;2083702;28;1483;-78
2021/08/22 06:17:57;;;;;;;;;;;;;;;;;;2084187;28;1357;-78
2021/08/22 06:18:59;;;;;;;;;;;;;;;;;;2041751;28;1651;-78
2021/08/22 06:20:00;;;;;;;;;;;;;;;;;;2041906;28;1560;-78
2021/08/22 06:21:02;;;;;;;;;;;;;;;;;;2093046;28;1870;-78
2021/08/22 06:22:03;;;;;;;;;;;;;;;;;;2099264;28;1877;-78
2021/08/22 06:23:04;;;;;;;;;;;;;;;;;;2100121;28;828;-78
2021/08/22 06:24:05;;;;;;;;;;;;;;;;;;2100423;28;1560;-78
2021/08/22 06:25:09;;;;;;;;;;;;;;;;;;2091734;28;1675;-78
2021/08/22 06:26:09;;;;;;;;;;;;;;;;;;2049636;28;1982;-78
2021/08/22 06:27:12;;;;;;;;;;;;;;;;;;2042583;28;1769;-78
2021/08/22 06:28:13;;;;;;;;;;;;;;;;;;2042589;28;1648;-78
2021/08/22 06:29:15;;;;;;;;;;;;;;;;;;2050144;28;903;-78
2021/08/22 06:30:16;;;;;;;;;;;;;;;;;;2058649;28;1652;-78
2021/08/22 06:31:17;;;;;;;;;;;;;;;;;;2050545;28;1934;-78
2021/08/22 06:32:18;;;;;;;;;;;;;;;;;;2050418;28;2008;-78
2021/08/22 06:33:20;;;;;;;;;;;;;;;;;;2099848;28;1401;-78
2021/08/22 06:34:20;;;;;;;;;;;;;;;;;;2049526;29;1650;-78
2021/08/22 06:35:22;;;;;;;;;;;;;;;;;;2049951;29;1650;-78
2021/08/22 06:36:23;;;;;;;;;;;;;;;;;;2049470;29;1932;-77
2021/08/22 06:37:24;;;;;;;;;;;;;;;;;;2042158;28;1831;-78
2021/08/22 06:38:25;;;;;;;;;;;;;;;;;;2050220;28;1713;-77
2021/08/22 06:39:27;;;;;;;;;;;;;;;;;;2091990;28;1519;-78
2021/08/22 06:40:29;;;;;;;;;;;;;;;;;;2091376;28;1558;-77
2021/08/22 06:41:31;;;;;;;;;;;;;;;;;;2091735;28;1736;-78
2021/08/22 06:42:33;;;;;;;;;;;;;;;;;;2091871;28;1731;-78
2021/08/22 06:43:34;;;;;;;;;;;;;;;;;;2100272;28;1718;-77
2021/08/22 06:44:38;;;;;;;;;;;;;;;;;;2091855;28;1675;-78
2021/08/22 06:45:40;;;;;;;;;;;;;;;;;;2089665;28;1962;-79
2021/08/22 06:46:41;;;;;;;;;;;;;;;;;;2083878;28;1872;-79
2021/08/22 06:47:42;;;;;;;;;;;;;;;;;;2091193;28;2006;-79
2021/08/22 06:48:43;;;;;;;;;;;;;;;;;;2049814;28;1600;-78
2021/08/22 06:49:45;;;;;;;;;;;;;;;;;;2091474;28;1579;-78
2021/08/22 06:50:47;;;;;;;;;;;;;;;;;;2091608;28;1822;-79
2021/08/22 06:51:49;;;;;;;;;;;;;;;;;;2049889;28;1833;-79
2021/08/22 06:52:50;;;;;;;;;;;;;;;;;;2049891;28;1195;-78
2021/08/22 06:53:52;;;;;;;;;;;;;;;;;;2050179;29;1564;-79
2021/08/22 06:54:52;;;;;;;;;;;;;;;;;;2041369;29;1517;-79
2021/08/22 06:55:55;;;;;;;;;;;;;;;;;;2050158;28;1647;-78
2021/08/22 06:56:56;;;;;;;;;;;;;;;;;;2049879;28;923;-78
2021/08/22 06:57:58;;;;;;;;;;;;;;;;;;2050030;29;1706;-78
2021/08/22 06:58:58;;;;;;;;;;;;;;;;;;2041417;29;1504;-79
2021/08/22 07:00:00;;;;;;;;;;;;;;;;;;2049884;29;1207;-78
2021/08/22 07:01:01;;;;;;;;;;;;;;;;;;2057933;28;1933;-78
2021/08/22 07:02:03;;;;;;;;;;;;;;;;;;2057853;28;2034;-79
2021/08/22 07:03:03;;;;;;;;;;;;;;;;;;2058011;28;1565;-78
2021/08/22 07:04:05;;;;;;;;;;;;;;;;;;2057987;28;1578;-79
2021/08/22 07:05:06;;;;;;;;;;;;;;;;;;2091692;28;1254;-79
2021/08/22 07:06:08;;;;;;;;;;;;;;;;;;2067142;28;1922;-79
2021/08/22 07:07:08;;;;;;;;;;;;;;;;;;2058319;28;1859;-79
2021/08/22 07:08:10;;;;;;;;;;;;;;;;;;2057576;28;1632;-78
2021/08/22 07:09:11;;;;;;;;;;;;;;;;;;2049929;28;1507;-78
2021/08/22 07:10:12;;;;;;;;;;;;;;;;;;2091476;28;1563;-78